KPHX/PHX METAR and TAF weather

Enter ICAO airport designator
Station Type Date Time Source
KPHX METAR 2020/09/27 16:51 UTC NOAA

KPHX 271651Z 09004KT 10SM FEW130 32/06 A2990 RMK AO2 SLP105 T03170056


Station Type Date Time Source
KPHX Decoded METAR 2020/09/27 16:51 UTC NOAA

Phoenix, Phoenix Sky Harbor International Airport, AZ, United States (KPHX) 33-26-03N 112-03-04W 336M
Sep 27, 2020 - 12:51 PM EDT / 2020.09.27 1651 UTC
Wind: from the E (090 degrees) at 5 MPH (4 KT):0
Visibility: 10 mile(s):0
Sky conditions: mostly clear
Temperature: 89.1 F (31.7 C)
Dew Point: 42.1 F (5.6 C)
Relative Humidity: 19%
Pressure (altimeter): 29.9 in. Hg (1012 hPa)
ob: KPHX 271651Z 09004KT 10SM FEW130 32/06 A2990 RMK AO2 SLP105 T03170056
cycle: 17

Station Type Date Time Source
KPHX TAF 2020/09/27 15:06 UTC NOAA

TAF
AMD KPHX 271502Z 2715/2818 12006KT P6SM SKC
FM271930 27008KT P6SM SKC
FM281000 10006KT P6SM SKC

Example: see airport list